Time;durP1;ratioP1;P1;durP2;ratioP2;P2;SDS_P1;SDS_P2;PMS_P1;PMS_P2;Temp;Humidity;BMP_temperature;BMP_pressure;BME280_temperature;BME280_humidity;BME280_pressure;Samples;Min_cycle;Max_cycle;Signal;HPM_P1;HPM_P2
2022/07/27 00:02:49;;;;;;;0.93;0.90;;;;;;;;;;8422097;28;20169;-72
2022/07/27 00:06:49;;;;;;;1.05;0.90;;;;;;;;;;8424336;28;20850;-72
2022/07/27 00:10:50;;;;;;;1.65;1.00;;;;;;;;;;8429355;28;20027;-71
2022/07/27 00:14:51;;;;;;;2.63;1.00;;;;;;;;;;8427848;28;20032;-72
2022/07/27 00:18:52;;;;;;;3.92;0.90;;;;;;;;;;8429571;28;20031;-72
2022/07/27 00:22:52;;;;;;;2.17;0.87;;;;;;;;;;8401065;27;20015;-73
2022/07/27 00:26:53;;;;;;;1.48;0.90;;;;;;;;;;8428433;27;20027;-72
2022/07/27 00:30:53;;;;;;;1.60;0.87;;;;;;;;;;8429104;27;20515;-72
2022/07/27 00:34:53;;;;;;;2.60;1.00;;;;;;;;;;8428687;28;20032;-72
2022/07/27 00:38:53;;;;;;;2.20;0.90;;;;;;;;;;8430069;28;20383;-72
2022/07/27 00:42:54;;;;;;;1.02;0.93;;;;;;;;;;8429137;28;20051;-72
2022/07/27 00:46:55;;;;;;;2.90;0.90;;;;;;;;;;8427981;28;20380;-72
2022/07/27 00:50:55;;;;;;;3.85;1.00;;;;;;;;;;8426978;28;20277;-72
2022/07/27 00:54:56;;;;;;;2.15;1.00;;;;;;;;;;8428194;28;20038;-72
2022/07/27 00:58:57;;;;;;;1.00;0.90;;;;;;;;;;8426621;27;20058;-72
2022/07/27 01:02:57;;;;;;;1.45;1.10;;;;;;;;;;8427645;28;20032;-73
2022/07/27 01:07:01;;;;;;;1.25;0.90;;;;;;;;;;8428521;28;20114;-72
2022/07/27 01:11:01;;;;;;;1.05;0.80;;;;;;;;;;8426570;27;20035;-72
2022/07/27 01:15:01;;;;;;;1.85;0.90;;;;;;;;;;8425514;28;20069;-72
2022/07/27 01:19:02;;;;;;;1.97;0.90;;;;;;;;;;8425751;27;20092;-72
2022/07/27 01:23:02;;;;;;;1.00;0.88;;;;;;;;;;8425710;28;20277;-72
2022/07/27 01:27:03;;;;;;;2.60;0.80;;;;;;;;;;8425493;28;20027;-72
2022/07/27 01:31:03;;;;;;;1.52;0.80;;;;;;;;;;8423115;28;20031;-72
2022/07/27 01:35:03;;;;;;;1.00;0.80;;;;;;;;;;8403512;28;20047;-72
2022/07/27 01:39:04;;;;;;;0.80;0.80;;;;;;;;;;8425230;28;20030;-72
2022/07/27 01:43:04;;;;;;;1.25;0.90;;;;;;;;;;8427058;28;20284;-72
2022/07/27 01:47:04;;;;;;;2.35;0.90;;;;;;;;;;8425377;28;20032;-72
2022/07/27 01:51:05;;;;;;;1.50;0.90;;;;;;;;;;8425037;28;20126;-72
2022/07/27 01:55:06;;;;;;;0.70;0.70;;;;;;;;;;8425085;28;20426;-72
2022/07/27 01:59:07;;;;;;;1.38;0.80;;;;;;;;;;8425644;28;20480;-72
2022/07/27 02:03:07;;;;;;;2.63;0.85;;;;;;;;;;8425619;28;20184;-71
2022/07/27 02:07:08;;;;;;;1.40;0.90;;;;;;;;;;8398465;28;20130;-72
2022/07/27 02:15:28;;;;;;;2.22;0.88;;;;;;;;;;8425821;28;21442;-72
2022/07/27 02:19:28;;;;;;;0.90;0.90;;;;;;;;;;8424305;28;20021;-71
2022/07/27 02:23:30;;;;;;;0.80;0.80;;;;;;;;;;8404095;28;20150;-72
2022/07/27 02:27:30;;;;;;;1.30;0.80;;;;;;;;;;8424619;28;20126;-72
2022/07/27 02:31:30;;;;;;;1.47;1.10;;;;;;;;;;8422674;27;20039;-72
2022/07/27 02:35:31;;;;;;;1.00;0.80;;;;;;;;;;8424522;28;20094;-72
2022/07/27 02:39:31;;;;;;;1.42;0.90;;;;;;;;;;8423997;28;20071;-72
2022/07/27 02:43:31;;;;;;;0.80;0.80;;;;;;;;;;8423242;28;20031;-71
2022/07/27 02:47:31;;;;;;;0.80;0.80;;;;;;;;;;8422466;28;20032;-72
2022/07/27 02:51:32;;;;;;;1.37;0.80;;;;;;;;;;8422701;28;20020;-72
2022/07/27 02:55:32;;;;;;;1.38;0.90;;;;;;;;;;8423016;28;20281;-72
2022/07/27 02:59:32;;;;;;;1.23;0.80;;;;;;;;;;8423585;28;20028;-72
2022/07/27 03:03:33;;;;;;;2.47;0.88;;;;;;;;;;8422331;28;20038;-72
2022/07/27 03:07:33;;;;;;;1.53;0.90;;;;;;;;;;8425804;28;20126;-72
2022/07/27 03:11:33;;;;;;;1.58;0.80;;;;;;;;;;8422950;28;20028;-72
2022/07/27 03:15:33;;;;;;;1.67;0.80;;;;;;;;;;8421034;28;20092;-72
2022/07/27 03:19:33;;;;;;;2.50;0.90;;;;;;;;;;8421494;28;20016;-72
2022/07/27 03:23:34;;;;;;;1.00;1.00;;;;;;;;;;8422715;28;20020;-72
2022/07/27 03:27:34;;;;;;;1.00;0.90;;;;;;;;;;8421336;28;20096;-72
2022/07/27 03:31:34;;;;;;;0.80;0.80;;;;;;;;;;8422706;28;20066;-72
2022/07/27 03:35:34;;;;;;;6.53;0.80;;;;;;;;;;8422669;28;20020;-72
2022/07/27 03:39:35;;;;;;;1.57;0.80;;;;;;;;;;8424239;28;20126;-72
2022/07/27 03:43:35;;;;;;;1.80;0.80;;;;;;;;;;8424896;28;20380;-72
2022/07/27 03:47:35;;;;;;;1.27;0.80;;;;;;;;;;8409988;28;20560;-72
2022/07/27 03:51:35;;;;;;;3.63;0.90;;;;;;;;;;8428509;27;20027;-72
2022/07/27 03:55:36;;;;;;;2.03;0.80;;;;;;;;;;8429961;28;20027;-71
2022/07/27 03:59:36;;;;;;;0.70;0.70;;;;;;;;;;8428900;27;20034;-72
2022/07/27 04:03:36;;;;;;;0.83;0.70;;;;;;;;;;8409243;28;20039;-72
2022/07/27 04:07:37;;;;;;;0.70;0.70;;;;;;;;;;8429667;28;20114;-71
2022/07/27 04:11:37;;;;;;;1.88;0.95;;;;;;;;;;8428380;27;20273;-71
2022/07/27 04:15:37;;;;;;;1.02;0.80;;;;;;;;;;8428914;27;20111;-72
2022/07/27 04:19:37;;;;;;;1.67;0.90;;;;;;;;;;8428510;28;20024;-72
2022/07/27 04:23:37;;;;;;;2.28;0.95;;;;;;;;;;8428200;28;20405;-72
2022/07/27 04:27:38;;;;;;;1.90;0.80;;;;;;;;;;8424782;27;20035;-72
2022/07/27 04:31:38;;;;;;;1.07;0.90;;;;;;;;;;8426151;28;20036;-72
2022/07/27 04:35:38;;;;;;;1.73;1.00;;;;;;;;;;8407385;28;20277;-72
2022/07/27 04:39:38;;;;;;;1.13;0.83;;;;;;;;;;8414629;28;20027;-72
2022/07/27 04:43:39;;;;;;;1.65;0.82;;;;;;;;;;8426682;28;20032;-72
2022/07/27 04:47:39;;;;;;;2.40;0.90;;;;;;;;;;8427426;28;20070;-72
2022/07/27 04:51:41;;;;;;;3.55;1.05;;;;;;;;;;8428922;28;20342;-72
2022/07/27 04:55:42;;;;;;;1.15;0.90;;;;;;;;;;8425053;28;20454;-72
2022/07/27 04:59:42;;;;;;;1.50;0.80;;;;;;;;;;8428592;28;20028;-72
2022/07/27 05:03:43;;;;;;;2.03;0.80;;;;;;;;;;8428254;28;20042;-72
2022/07/27 05:07:43;;;;;;;3.17;1.20;;;;;;;;;;8426776;27;20019;-72
2022/07/27 05:11:43;;;;;;;1.92;0.80;;;;;;;;;;8426948;28;20151;-71
2022/07/27 05:15:43;;;;;;;1.42;0.85;;;;;;;;;;8428320;28;20039;-72
2022/07/27 05:19:44;;;;;;;2.58;0.95;;;;;;;;;;8426922;28;20027;-72
2022/07/27 05:23:45;;;;;;;3.33;1.25;;;;;;;;;;8425764;27;20166;-72
2022/07/27 05:27:45;;;;;;;4.05;1.00;;;;;;;;;;8425888;28;20451;-72
2022/07/27 05:31:45;;;;;;;1.30;0.90;;;;;;;;;;8426009;28;20054;-72
2022/07/27 05:35:46;;;;;;;1.53;0.97;;;;;;;;;;8428085;28;20055;-72
2022/07/27 05:39:46;;;;;;;4.47;1.20;;;;;;;;;;8426998;27;20635;-72
2022/07/27 05:43:46;;;;;;;3.88;0.98;;;;;;;;;;8426889;28;20027;-72
2022/07/27 05:47:46;;;;;;;3.47;0.97;;;;;;;;;;8425544;28;20092;-72
2022/07/27 05:51:47;;;;;;;1.87;0.90;;;;;;;;;;8427644;28;20281;-72
2022/07/27 05:55:47;;;;;;;2.33;1.00;;;;;;;;;;8427086;28;20019;-72
2022/07/27 05:59:47;;;;;;;3.13;1.08;;;;;;;;;;8427687;28;20381;-72
2022/07/27 06:03:47;;;;;;;3.30;1.00;;;;;;;;;;8403488;28;20043;-72
2022/07/27 06:08:07;;;;;;;2.28;1.08;;;;;;;;;;8427335;28;20138;-72
2022/07/27 06:12:07;;;;;;;4.03;1.10;;;;;;;;;;8406430;28;20057;-73
2022/07/27 06:16:08;;;;;;;5.00;1.10;;;;;;;;;;8426115;28;20843;-72
2022/07/27 06:20:09;;;;;;;2.78;1.13;;;;;;;;;;8426242;28;20039;-72
2022/07/27 06:24:10;;;;;;;2.38;1.10;;;;;;;;;;8423904;28;20015;-72
2022/07/27 06:28:10;;;;;;;2.25;1.00;;;;;;;;;;8426180;27;20065;-72
2022/07/27 06:32:10;;;;;;;3.53;1.50;;;;;;;;;;8424442;28;20122;-73
2022/07/27 06:36:11;;;;;;;4.77;1.20;;;;;;;;;;8426519;28;20023;-72
2022/07/27 06:40:12;;;;;;;2.47;1.10;;;;;;;;;;8423993;28;20969;-72
2022/07/27 06:44:12;;;;;;;5.30;1.30;;;;;;;;;;8424199;28;20788;-72
2022/07/27 06:48:12;;;;;;;5.60;1.17;;;;;;;;;;8423961;28;20040;-71
2022/07/27 06:52:12;;;;;;;1.85;1.10;;;;;;;;;;8424915;28;20028;-73
2022/07/27 06:56:13;;;;;;;4.63;1.10;;;;;;;;;;8423599;28;20023;-72
2022/07/27 07:00:13;;;;;;;3.67;1.15;;;;;;;;;;8423547;28;20019;-72
2022/07/27 07:04:13;;;;;;;5.05;1.25;;;;;;;;;;8424892;28;20032;-72
2022/07/27 07:08:14;;;;;;;2.87;1.23;;;;;;;;;;8424887;28;20027;-72
2022/07/27 07:12:14;;;;;;;6.05;1.63;;;;;;;;;;8423808;28;20935;-72
2022/07/27 07:16:14;;;;;;;3.38;1.08;;;;;;;;;;8424058;28;20027;-72
2022/07/27 07:20:15;;;;;;;5.07;1.10;;;;;;;;;;8425613;28;21008;-71
2022/07/27 07:24:15;;;;;;;2.85;1.20;;;;;;;;;;8431523;28;20782;-72
2022/07/27 07:28:15;;;;;;;2.97;1.17;;;;;;;;;;8428418;28;20019;-70
2022/07/27 07:32:16;;;;;;;3.13;1.20;;;;;;;;;;8423604;28;20063;-70
2022/07/27 07:36:16;;;;;;;2.85;1.10;;;;;;;;;;8415396;28;20329;-71
2022/07/27 07:40:18;;;;;;;3.42;1.20;;;;;;;;;;8418628;27;20213;-70
2022/07/27 07:44:18;;;;;;;6.97;1.50;;;;;;;;;;8407338;28;20273;-70
2022/07/27 07:48:20;;;;;;;3.17;1.30;;;;;;;;;;8403088;28;20043;-71
2022/07/27 07:52:20;;;;;;;3.40;1.20;;;;;;;;;;8428113;28;20023;-71
2022/07/27 07:56:20;;;;;;;4.40;1.13;;;;;;;;;;8427891;27;20019;-71
2022/07/27 08:00:21;;;;;;;3.92;1.20;;;;;;;;;;8426002;27;20034;-71
2022/07/27 08:04:21;;;;;;;4.20;1.30;;;;;;;;;;8427660;27;20028;-71
2022/07/27 08:08:21;;;;;;;7.28;1.60;;;;;;;;;;8428866;28;20130;-71
2022/07/27 08:12:21;;;;;;;3.88;1.40;;;;;;;;;;8426589;27;20184;-71
2022/07/27 08:16:22;;;;;;;2.70;1.20;;;;;;;;;;8427582;28;20053;-71
2022/07/27 08:20:24;;;;;;;3.75;1.33;;;;;;;;;;8426832;28;20016;-71
2022/07/27 08:24:24;;;;;;;4.00;1.37;;;;;;;;;;8427620;27;20028;-71
2022/07/27 08:28:25;;;;;;;2.90;1.30;;;;;;;;;;8428068;28;20292;-71
2022/07/27 08:32:25;;;;;;;3.75;1.52;;;;;;;;;;8424854;28;20028;-71
2022/07/27 08:36:25;;;;;;;2.97;1.30;;;;;;;;;;8408259;28;20469;-71
2022/07/27 08:40:26;;;;;;;3.40;1.27;;;;;;;;;;8428472;27;20139;-71
2022/07/27 08:44:28;;;;;;;2.30;1.30;;;;;;;;;;8406884;28;20358;-71
2022/07/27 08:48:29;;;;;;;4.13;1.40;;;;;;;;;;8425388;28;20358;-71
2022/07/27 08:52:30;;;;;;;3.92;1.20;;;;;;;;;;8426840;28;20016;-71
2022/07/27 08:56:30;;;;;;;6.22;1.60;;;;;;;;;;8425278;28;20576;-71
2022/07/27 09:00:31;;;;;;;3.65;1.42;;;;;;;;;;8421309;28;20111;-71
2022/07/27 09:04:32;;;;;;;3.95;1.40;;;;;;;;;;8424655;28;20032;-72
2022/07/27 09:08:32;;;;;;;9.00;1.40;;;;;;;;;;8404399;28;20031;-72
2022/07/27 09:12:33;;;;;;;2.97;1.30;;;;;;;;;;8426124;28;20129;-72
2022/07/27 09:16:34;;;;;;;6.07;1.55;;;;;;;;;;8425177;28;20038;-71
2022/07/27 09:20:34;;;;;;;8.40;1.48;;;;;;;;;;8402202;28;20455;-71
2022/07/27 09:24:34;;;;;;;3.75;1.45;;;;;;;;;;8423685;27;20659;-72
2022/07/27 09:28:34;;;;;;;4.38;1.30;;;;;;;;;;8423733;27;20034;-71
2022/07/27 09:32:35;;;;;;;3.10;1.40;;;;;;;;;;8413259;27;20036;-71
2022/07/27 09:36:48;;;;;;;4.35;1.30;;;;;;;;;;8424269;28;20070;-71
2022/07/27 09:40:59;;;;;;;7.45;1.17;;;;;;;;;;8423412;27;20031;-71
2022/07/27 09:44:59;;;;;;;2.95;1.27;;;;;;;;;;8424504;27;20024;-71
2022/07/27 09:48:59;;;;;;;3.00;1.30;;;;;;;;;;8403505;28;20035;-71
2022/07/27 09:53:17;;;;;;;4.55;1.60;;;;;;;;;;8421822;28;20024;-71
2022/07/27 09:57:20;;;;;;;5.03;1.73;;;;;;;;;;8423742;28;20027;-71
2022/07/27 10:01:21;;;;;;;3.10;1.20;;;;;;;;;;8400882;28;20084;-72
2022/07/27 10:05:22;;;;;;;8.50;1.40;;;;;;;;;;8423675;27;20110;-72
2022/07/27 10:09:22;;;;;;;6.63;1.70;;;;;;;;;;8424145;28;20023;-72
2022/07/27 10:13:24;;;;;;;5.77;1.40;;;;;;;;;;8422340;28;20055;-72
2022/07/27 10:17:24;;;;;;;4.15;1.60;;;;;;;;;;8422234;28;20044;-72
2022/07/27 10:21:24;;;;;;;2.80;1.40;;;;;;;;;;8404277;28;20030;-72
2022/07/27 10:25:26;;;;;;;4.82;1.40;;;;;;;;;;8423706;28;20088;-72
2022/07/27 10:29:26;;;;;;;3.78;1.35;;;;;;;;;;8425412;28;20091;-72
2022/07/27 10:33:46;;;;;;;5.07;1.40;;;;;;;;;;8396863;28;20195;-72
2022/07/27 10:38:05;;;;;;;7.47;1.38;;;;;;;;;;8400084;28;20503;-72
2022/07/27 10:42:18;;;;;;;5.63;1.30;;;;;;;;;;8420435;28;20739;-72
2022/07/27 10:46:19;;;;;;;4.93;1.48;;;;;;;;;;8422159;28;20035;-75
2022/07/27 10:50:22;;;;;;;4.85;1.58;;;;;;;;;;8418358;28;20136;-73
2022/07/27 10:54:35;;;;;;;3.25;1.50;;;;;;;;;;8401591;28;20387;-75
2022/07/27 10:58:35;;;;;;;;;;;;;;;;;;8418256;28;20921;-73
2022/07/27 11:02:39;;;;;;;4.25;1.23;;;;;;;;;;8417813;28;19922;-76
2022/07/27 11:06:40;;;;;;;4.93;1.88;;;;;;;;;;8420428;28;20056;-75
2022/07/27 11:10:43;;;;;;;4.32;1.20;;;;;;;;;;8418898;28;20020;-75
2022/07/27 11:14:45;;;;;;;6.00;1.50;;;;;;;;;;8417439;28;20524;-76
2022/07/27 11:18:53;;;;;;;4.57;1.43;;;;;;;;;;8416317;28;20036;-75
2022/07/27 11:22:53;;;;;;;6.47;1.35;;;;;;;;;;8420418;28;20117;-76
2022/07/27 11:26:53;;;;;;;2.88;1.33;;;;;;;;;;8419506;28;20088;-75
2022/07/27 11:30:54;;;;;;;4.20;1.45;;;;;;;;;;8419727;28;20048;-76
2022/07/27 11:34:54;;;;;;;4.22;1.60;;;;;;;;;;8417681;28;20035;-75
2022/07/27 11:38:54;;;;;;;2.45;1.23;;;;;;;;;;8422082;28;20032;-76
2022/07/27 11:42:55;;;;;;;5.27;1.27;;;;;;;;;;8419113;28;20031;-77
2022/07/27 11:46:56;;;;;;;3.72;1.40;;;;;;;;;;8401020;28;20032;-74
2022/07/27 11:50:56;;;;;;;3.80;1.27;;;;;;;;;;8420994;28;20028;-78
2022/07/27 11:54:57;;;;;;;2.55;1.40;;;;;;;;;;8419453;28;20035;-73
2022/07/27 11:58:58;;;;;;;2.83;1.20;;;;;;;;;;8421192;28;20023;-74
2022/07/27 12:02:59;;;;;;;4.77;1.50;;;;;;;;;;8420033;28;20031;-78
2022/07/27 12:06:59;;;;;;;3.63;1.48;;;;;;;;;;8406485;28;20016;-77
2022/07/27 12:10:59;;;;;;;4.32;1.48;;;;;;;;;;8426637;27;20027;-77
2022/07/27 12:15:01;;;;;;;4.25;1.50;;;;;;;;;;8426646;27;20201;-74
2022/07/27 12:19:01;;;;;;;4.30;1.20;;;;;;;;;;8425976;28;20051;-73
2022/07/27 12:23:03;;;;;;;4.07;1.70;;;;;;;;;;8427100;28;20035;-75
2022/07/27 12:27:07;;;;;;;4.03;1.63;;;;;;;;;;8427205;28;20023;-76
2022/07/27 12:31:15;;;;;;;4.22;1.17;;;;;;;;;;8426860;28;20031;-77
2022/07/27 12:35:16;;;;;;;4.93;1.30;;;;;;;;;;8427109;28;20024;-78
2022/07/27 12:39:26;;;;;;;3.00;1.17;;;;;;;;;;8422934;28;20019;-74
2022/07/27 12:43:26;;;;;;;1.80;1.20;;;;;;;;;;8411904;28;20571;-74
2022/07/27 12:47:42;;;;;;;2.53;1.48;;;;;;;;;;8423454;27;20040;-75
2022/07/27 12:51:43;;;;;;;2.95;1.30;;;;;;;;;;8423334;28;20048;-74
2022/07/27 12:55:44;;;;;;;3.33;1.30;;;;;;;;;;8411205;28;20028;-74
2022/07/27 12:59:44;;;;;;;3.47;1.47;;;;;;;;;;8422855;28;20944;-73
2022/07/27 13:03:44;;;;;;;8.00;1.70;;;;;;;;;;8403127;27;20756;-74
2022/07/27 13:07:46;;;;;;;7.22;1.40;;;;;;;;;;8424989;28;20027;-75
2022/07/27 13:11:46;;;;;;;2.87;1.13;;;;;;;;;;8422124;28;20704;-74
2022/07/27 13:15:46;;;;;;;2.92;1.20;;;;;;;;;;8423333;28;20039;-76
2022/07/27 13:19:47;;;;;;;3.08;1.17;;;;;;;;;;8423661;28;20643;-75
2022/07/27 13:23:48;;;;;;;3.35;1.40;;;;;;;;;;8423843;27;20557;-75
2022/07/27 13:27:48;;;;;;;6.50;1.40;;;;;;;;;;8424421;28;20024;-72
2022/07/27 13:31:49;;;;;;;3.10;1.20;;;;;;;;;;8422130;28;20120;-72
2022/07/27 13:35:49;;;;;;;6.17;1.30;;;;;;;;;;8421849;28;20978;-72
2022/07/27 13:39:49;;;;;;;3.03;1.33;;;;;;;;;;8423596;28;20084;-73
2022/07/27 13:43:49;;;;;;;1.97;1.27;;;;;;;;;;8421455;28;20081;-73
2022/07/27 13:47:49;;;;;;;2.90;1.50;;;;;;;;;;8403055;28;20044;-73
2022/07/27 13:51:50;;;;;;;3.72;1.35;;;;;;;;;;8422435;28;20054;-72
2022/07/27 13:55:50;;;;;;;1.83;1.13;;;;;;;;;;8421651;27;20058;-71
2022/07/27 13:59:50;;;;;;;5.25;1.50;;;;;;;;;;8421890;28;20012;-71
2022/07/27 14:03:50;;;;;;;3.60;1.40;;;;;;;;;;8421176;28;20040;-70
2022/07/27 14:07:50;;;;;;;2.77;1.20;;;;;;;;;;8422563;28;20208;-73
2022/07/27 14:11:51;;;;;;;3.08;1.20;;;;;;;;;;8420424;27;20441;-73
2022/07/27 14:15:51;;;;;;;1.50;1.00;;;;;;;;;;8421374;28;20040;-73
2022/07/27 14:19:51;;;;;;;2.67;1.02;;;;;;;;;;8422324;28;20034;-72
2022/07/27 14:23:51;;;;;;;3.63;1.13;;;;;;;;;;8421663;28;20139;-72
2022/07/27 14:27:52;;;;;;;1.95;1.08;;;;;;;;;;8415981;28;20027;-72
2022/07/27 14:31:52;;;;;;;3.05;1.08;;;;;;;;;;8421129;28;20040;-74
2022/07/27 14:35:52;;;;;;;1.70;0.90;;;;;;;;;;8420474;28;20031;-75
2022/07/27 14:39:52;;;;;;;2.90;1.10;;;;;;;;;;8400096;28;20028;-74
2022/07/27 14:43:53;;;;;;;4.15;1.30;;;;;;;;;;8420830;28;20032;-73
2022/07/27 14:47:56;;;;;;;3.20;1.20;;;;;;;;;;8421877;28;20488;-75
2022/07/27 14:51:56;;;;;;;3.30;1.10;;;;;;;;;;8423781;28;20032;-71
2022/07/27 14:55:56;;;;;;;1.98;0.88;;;;;;;;;;8422878;28;20024;-73
2022/07/27 14:59:56;;;;;;;3.65;1.23;;;;;;;;;;8419842;28;20665;-74
2022/07/27 15:03:57;;;;;;;3.77;1.20;;;;;;;;;;8419168;28;20043;-74
2022/07/27 15:07:57;;;;;;;3.75;1.10;;;;;;;;;;8420756;28;20367;-75
2022/07/27 15:11:58;;;;;;;4.30;1.00;;;;;;;;;;8420712;28;20599;-72
2022/07/27 15:15:58;;;;;;;3.75;1.05;;;;;;;;;;8420339;28;20819;-72
2022/07/27 15:19:59;;;;;;;4.80;1.00;;;;;;;;;;8420052;28;20023;-71
2022/07/27 15:23:59;;;;;;;2.97;0.90;;;;;;;;;;8420295;28;20130;-72
2022/07/27 15:27:59;;;;;;;2.47;1.10;;;;;;;;;;8423615;28;20100;-74
2022/07/27 15:31:59;;;;;;;6.15;1.10;;;;;;;;;;8422246;28;20061;-73
2022/07/27 15:35:59;;;;;;;3.28;1.10;;;;;;;;;;8422915;28;21040;-74
2022/07/27 15:40:35;;;;;;;1.75;1.00;;;;;;;;;;8425969;28;20025;-74
2022/07/27 15:44:20;;;;;;;1.95;0.90;;;;;;;;;;8429234;28;20062;-74
2022/07/27 15:48:20;;;;;;;3.40;1.10;;;;;;;;;;8430721;28;20035;-73
2022/07/27 15:52:21;;;;;;;3.38;1.00;;;;;;;;;;8430882;28;20118;-73
2022/07/27 15:56:21;;;;;;;1.42;0.82;;;;;;;;;;8428696;28;20096;-74
2022/07/27 16:00:22;;;;;;;4.20;0.95;;;;;;;;;;8407404;28;20035;-74
2022/07/27 16:04:22;;;;;;;0.90;0.80;;;;;;;;;;8430278;27;20035;-74
2022/07/27 16:08:25;;;;;;;2.15;0.82;;;;;;;;;;8430351;27;20050;-73
2022/07/27 16:12:26;;;;;;;2.88;0.90;;;;;;;;;;8430615;28;20027;-74
2022/07/27 16:16:29;;;;;;;3.42;0.95;;;;;;;;;;8429322;28;20732;-74
2022/07/27 16:20:29;;;;;;;2.55;1.02;;;;;;;;;;8430065;28;20016;-73
2022/07/27 16:24:29;;;;;;;1.53;0.80;;;;;;;;;;8430079;28;20072;-74
2022/07/27 16:28:30;;;;;;;3.08;0.82;;;;;;;;;;8428743;27;20028;-74
2022/07/27 16:32:31;;;;;;;1.15;0.77;;;;;;;;;;8407653;28;20454;-74
2022/07/27 16:36:31;;;;;;;3.08;1.00;;;;;;;;;;8428887;27;20015;-75
2022/07/27 16:40:31;;;;;;;1.47;0.90;;;;;;;;;;8428656;28;20937;-74
2022/07/27 16:44:31;;;;;;;2.38;0.90;;;;;;;;;;8429143;28;20268;-74
2022/07/27 16:48:32;;;;;;;3.30;0.90;;;;;;;;;;8429287;28;20064;-75
2022/07/27 16:52:33;;;;;;;3.78;0.90;;;;;;;;;;8427253;28;20055;-74
2022/07/27 16:56:33;;;;;;;5.75;0.90;;;;;;;;;;8429432;28;20027;-74
2022/07/27 17:00:33;;;;;;;2.63;0.85;;;;;;;;;;8426800;28;20042;-74
2022/07/27 17:04:34;;;;;;;2.63;0.80;;;;;;;;;;8415297;28;20034;-74
2022/07/27 17:08:34;;;;;;;2.93;0.90;;;;;;;;;;8428794;28;20778;-74
2022/07/27 17:12:35;;;;;;;2.42;0.80;;;;;;;;;;8425717;27;20282;-74
2022/07/27 17:16:35;;;;;;;2.27;0.87;;;;;;;;;;8429530;28;20139;-73
2022/07/27 17:20:36;;;;;;;3.42;0.85;;;;;;;;;;8407388;28;20147;-73
2022/07/27 17:24:36;;;;;;;2.08;1.00;;;;;;;;;;8427918;28;20106;-73
2022/07/27 17:28:37;;;;;;;1.65;0.75;;;;;;;;;;8427847;28;20051;-74
2022/07/27 17:32:38;;;;;;;3.08;0.80;;;;;;;;;;8426547;28;21002;-74
2022/07/27 17:36:38;;;;;;;1.35;0.75;;;;;;;;;;8426599;27;20053;-74
2022/07/27 17:40:39;;;;;;;1.85;1.10;;;;;;;;;;8427258;28;20024;-74
2022/07/27 17:44:39;;;;;;;3.22;1.10;;;;;;;;;;8427192;28;20032;-75
2022/07/27 17:48:39;;;;;;;4.43;0.88;;;;;;;;;;8426821;28;20039;-74
2022/07/27 17:52:40;;;;;;;3.30;0.90;;;;;;;;;;8426038;28;20027;-74
2022/07/27 17:56:40;;;;;;;2.40;0.90;;;;;;;;;;8426070;28;20279;-73
2022/07/27 18:00:40;;;;;;;2.08;0.80;;;;;;;;;;8425025;27;20042;-74
2022/07/27 18:04:41;;;;;;;1.87;0.90;;;;;;;;;;8425984;28;20237;-75
2022/07/27 18:08:41;;;;;;;1.75;0.70;;;;;;;;;;8426711;28;20305;-74
2022/07/27 18:12:41;;;;;;;2.05;1.00;;;;;;;;;;8425670;28;20040;-74
2022/07/27 18:16:41;;;;;;;2.85;0.80;;;;;;;;;;8405869;28;20028;-74
2022/07/27 18:20:42;;;;;;;2.53;0.73;;;;;;;;;;8424586;28;20015;-74
2022/07/27 18:24:42;;;;;;;1.95;0.70;;;;;;;;;;8426865;27;20447;-74
2022/07/27 18:28:42;;;;;;;1.23;0.70;;;;;;;;;;8426090;28;20766;-74
2022/07/27 18:32:44;;;;;;;1.23;0.70;;;;;;;;;;8424591;28;20040;-74
2022/07/27 18:36:45;;;;;;;1.23;0.80;;;;;;;;;;8405799;28;21025;-74
2022/07/27 18:40:46;;;;;;;0.85;0.70;;;;;;;;;;8424800;28;20540;-73
2022/07/27 18:44:46;;;;;;;0.88;0.77;;;;;;;;;;8413579;28;20053;-74
2022/07/27 18:48:47;;;;;;;1.73;0.90;;;;;;;;;;8407434;28;20124;-74
2022/07/27 18:52:47;;;;;;;1.60;0.82;;;;;;;;;;8425559;28;20932;-74
2022/07/27 18:56:47;;;;;;;2.88;0.85;;;;;;;;;;8405715;28;20024;-75
2022/07/27 19:00:47;;;;;;;1.35;0.68;;;;;;;;;;8423926;28;20861;-74
2022/07/27 19:04:49;;;;;;;0.60;0.60;;;;;;;;;;8404268;28;20024;-74
2022/07/27 19:08:49;;;;;;;1.15;0.73;;;;;;;;;;8425754;28;20091;-74
2022/07/27 19:12:50;;;;;;;1.15;0.70;;;;;;;;;;8422770;28;20139;-74
2022/07/27 19:16:50;;;;;;;1.75;0.80;;;;;;;;;;8430827;27;20342;-74
2022/07/27 19:20:50;;;;;;;1.80;0.80;;;;;;;;;;8432331;28;20126;-74
2022/07/27 19:24:50;;;;;;;1.77;0.70;;;;;;;;;;8432727;28;20031;-74
2022/07/27 19:28:51;;;;;;;0.95;0.60;;;;;;;;;;8430524;28;20038;-74
2022/07/27 19:32:51;;;;;;;1.27;0.77;;;;;;;;;;8430184;28;20031;-75
2022/07/27 19:36:51;;;;;;;2.47;0.77;;;;;;;;;;8409613;28;20016;-74
2022/07/27 19:40:53;;;;;;;3.22;0.70;;;;;;;;;;8430686;28;20104;-73
2022/07/27 19:44:54;;;;;;;3.65;0.70;;;;;;;;;;8431784;28;20995;-74
2022/07/27 19:48:54;;;;;;;0.80;0.60;;;;;;;;;;8410098;28;20389;-74
2022/07/27 19:52:54;;;;;;;1.05;0.73;;;;;;;;;;8431089;27;20137;-74
2022/07/27 19:56:54;;;;;;;1.38;0.73;;;;;;;;;;8429022;28;20460;-74
2022/07/27 20:00:55;;;;;;;2.58;0.60;;;;;;;;;;8428385;27;20036;-74
2022/07/27 20:04:55;;;;;;;0.80;0.60;;;;;;;;;;8429998;28;20368;-74
2022/07/27 20:08:58;;;;;;;1.10;0.70;;;;;;;;;;8430092;28;20024;-74
2022/07/27 20:12:58;;;;;;;1.85;0.77;;;;;;;;;;8428728;28;20593;-74
2022/07/27 20:17:00;;;;;;;1.25;0.80;;;;;;;;;;8429390;28;20024;-74
2022/07/27 20:21:01;;;;;;;0.82;0.60;;;;;;;;;;8428862;28;20023;-74
2022/07/27 20:25:01;;;;;;;0.85;0.60;;;;;;;;;;8428595;28;20016;-74
2022/07/27 20:29:01;;;;;;;2.42;0.70;;;;;;;;;;8429863;28;20139;-74
2022/07/27 20:33:02;;;;;;;0.60;0.60;;;;;;;;;;8427080;28;20136;-74
2022/07/27 20:37:02;;;;;;;0.57;0.50;;;;;;;;;;8431290;28;20654;-74
2022/07/27 20:41:02;;;;;;;1.52;0.70;;;;;;;;;;8427196;28;20107;-74
2022/07/27 20:45:03;;;;;;;1.13;0.60;;;;;;;;;;8426175;28;20034;-74
2022/07/27 20:49:03;;;;;;;0.60;0.60;;;;;;;;;;8426327;28;20133;-74
2022/07/27 20:53:03;;;;;;;2.08;0.80;;;;;;;;;;8428846;28;20023;-73
2022/07/27 20:57:04;;;;;;;1.17;0.80;;;;;;;;;;8427375;28;20049;-74
2022/07/27 21:01:04;;;;;;;1.40;0.60;;;;;;;;;;8427789;28;20110;-73
2022/07/27 21:05:05;;;;;;;2.37;0.93;;;;;;;;;;8427448;28;20031;-74
2022/07/27 21:09:06;;;;;;;0.60;0.60;;;;;;;;;;8428774;28;20034;-74
2022/07/27 21:13:06;;;;;;;2.67;0.65;;;;;;;;;;8428083;28;20027;-74
2022/07/27 21:17:06;;;;;;;1.35;0.70;;;;;;;;;;8424434;28;20111;-73
2022/07/27 21:21:07;;;;;;;2.97;0.90;;;;;;;;;;8427349;27;20115;-74
2022/07/27 21:25:07;;;;;;;1.10;0.85;;;;;;;;;;8426591;28;20137;-74
2022/07/27 21:29:08;;;;;;;1.25;0.70;;;;;;;;;;8427737;28;20120;-73
2022/07/27 21:33:08;;;;;;;1.77;0.75;;;;;;;;;;8426524;28;20031;-74
2022/07/27 21:37:09;;;;;;;1.95;0.90;;;;;;;;;;8426867;28;20674;-73
2022/07/27 21:41:09;;;;;;;2.00;0.70;;;;;;;;;;8426635;28;20020;-73
2022/07/27 21:45:09;;;;;;;1.38;0.80;;;;;;;;;;8420331;28;20056;-74
2022/07/27 21:49:11;;;;;;;0.77;0.70;;;;;;;;;;8417811;28;20034;-74
2022/07/27 21:53:12;;;;;;;3.47;0.80;;;;;;;;;;8424170;28;20281;-73
2022/07/27 21:57:12;;;;;;;0.70;0.70;;;;;;;;;;8417330;27;20026;-74
2022/07/27 22:01:12;;;;;;;4.13;0.80;;;;;;;;;;8412770;28;20491;-74
2022/07/27 22:05:12;;;;;;;0.77;0.63;;;;;;;;;;8414210;27;20035;-73
2022/07/27 22:09:13;;;;;;;1.90;0.80;;;;;;;;;;8415620;28;20062;-73
2022/07/27 22:13:13;;;;;;;3.40;0.77;;;;;;;;;;8414022;28;20027;-74
2022/07/27 22:17:13;;;;;;;1.60;0.77;;;;;;;;;;8414591;28;20773;-74
2022/07/27 22:21:13;;;;;;;0.70;0.70;;;;;;;;;;8414116;28;20028;-74
2022/07/27 22:25:14;;;;;;;2.30;0.88;;;;;;;;;;8393701;28;20984;-73
2022/07/27 22:29:14;;;;;;;2.58;0.70;;;;;;;;;;8413496;28;20050;-74
2022/07/27 22:33:14;;;;;;;1.08;0.95;;;;;;;;;;8413514;28;20031;-74
2022/07/27 22:37:14;;;;;;;1.80;0.68;;;;;;;;;;8421577;28;20095;-73
2022/07/27 22:41:14;;;;;;;0.73;0.60;;;;;;;;;;8422455;28;20019;-74
2022/07/27 22:45:15;;;;;;;1.63;0.63;;;;;;;;;;8423156;28;20110;-74
2022/07/27 22:49:15;;;;;;;0.80;0.70;;;;;;;;;;8425213;28;20039;-74
2022/07/27 22:53:15;;;;;;;7.00;0.70;;;;;;;;;;8423387;28;20032;-74
2022/07/27 22:57:15;;;;;;;1.80;0.70;;;;;;;;;;8425360;28;20119;-73
2022/07/27 23:01:15;;;;;;;2.50;1.00;;;;;;;;;;8424065;28;20036;-74
2022/07/27 23:05:16;;;;;;;2.05;0.70;;;;;;;;;;8423999;28;20042;-74
2022/07/27 23:09:16;;;;;;;1.67;0.75;;;;;;;;;;8425951;28;20081;-74
2022/07/27 23:13:17;;;;;;;4.97;0.80;;;;;;;;;;8423549;28;20112;-73
2022/07/27 23:17:17;;;;;;;1.10;0.60;;;;;;;;;;8423329;28;20028;-73
2022/07/27 23:21:17;;;;;;;1.83;0.73;;;;;;;;;;8425021;28;20023;-73
2022/07/27 23:25:18;;;;;;;2.17;0.63;;;;;;;;;;8424071;28;20820;-74
2022/07/27 23:29:18;;;;;;;1.55;0.65;;;;;;;;;;8403968;28;20036;-74
2022/07/27 23:33:18;;;;;;;1.63;0.68;;;;;;;;;;8401527;28;20043;-74
2022/07/27 23:37:18;;;;;;;3.80;0.88;;;;;;;;;;8402660;28;20023;-73
2022/07/27 23:41:19;;;;;;;1.35;0.70;;;;;;;;;;8405164;28;20043;-74
2022/07/27 23:45:19;;;;;;;1.98;0.73;;;;;;;;;;8422440;28;20209;-74
2022/07/27 23:49:19;;;;;;;2.43;0.80;;;;;;;;;;8423387;28;20151;-74
2022/07/27 23:53:20;;;;;;;2.25;0.93;;;;;;;;;;8422239;28;20019;-75
2022/07/27 23:57:21;;;;;;;1.60;0.75;;;;;;;;;;8424100;28;20024;-73
